Terminal Aerodrome Forecast
Issued by NWS

Home | Current Version | Previous Version | Text Only | Print | Product List | Glossary On
Versions: 1 2 3 4 5 6 7 8 9 10 11 12 13 14 15 16 17
000
FTUS43 KICT 240521
TAFSLN
TAF
KSLN 240521Z 2406/2506 07007KT 2SM -FZDZ OVC009
     FM241000 07006KT 2SM -FZDZ BR OVC003
     FM241600 04005KT 4SM -DZ BR OVC003
     FM242000 30009KT P6SM BKN010
     FM242200 30012KT P6SM SCT045
     FM242300 30012KT P6SM SCT090=

USA.gov is the U.S. government's official web portal to all federal, state and local government web resources and services.